createdAt,value
2019-04-05T00:02:07.437Z,43.5
2019-04-05T00:12:10.917Z,43.5
2019-04-05T00:22:14.436Z,43.4
2019-04-05T00:32:18.968Z,43.4
2019-04-05T00:42:22.503Z,43.4
2019-04-05T00:52:25.997Z,43.4
2019-04-05T01:02:29.528Z,43.3
2019-04-05T01:12:33.162Z,43.3
2019-04-05T01:22:36.690Z,43.2
2019-04-05T01:32:40.216Z,43.2
2019-04-05T01:42:43.720Z,43.2
2019-04-05T01:52:47.241Z,43.2
2019-04-05T02:02:50.738Z,43.1
2019-04-05T02:12:54.256Z,43.1
2019-04-05T02:22:57.755Z,43.1
2019-04-05T02:33:01.275Z,43.1
2019-04-05T02:43:04.846Z,43.1
2019-04-05T02:53:08.379Z,43.1
2019-04-05T03:03:11.909Z,43
2019-04-05T03:13:15.441Z,43
2019-04-05T03:23:18.961Z,43
2019-04-05T03:33:22.600Z,43
2019-04-05T03:43:26.159Z,43
2019-04-05T03:53:29.783Z,43
2019-04-05T04:03:33.332Z,42.9
2019-04-05T04:13:36.822Z,42.9
2019-04-05T04:23:40.350Z,42.9
2019-04-05T04:33:43.874Z,42.9
2019-04-05T04:43:47.368Z,42.9
2019-04-05T04:53:50.892Z,42.9
2019-04-05T05:03:54.422Z,42.9
2019-04-05T05:13:57.946Z,42.8
2019-04-05T05:24:01.470Z,42.8
2019-04-05T05:34:05.009Z,42.8
2019-04-05T05:44:08.526Z,42.9
2019-04-05T05:54:12.128Z,43.1
2019-04-05T06:04:15.634Z,43.3
2019-04-05T06:14:19.170Z,43.3
2019-04-05T06:24:22.704Z,43.4
2019-04-05T06:34:29.703Z,43.5
2019-04-05T06:44:33.209Z,49.6
2019-04-05T06:54:36.739Z,45.2
2019-04-05T07:04:40.238Z,44.3
2019-04-05T07:14:43.794Z,44.8
2019-04-05T07:24:49.737Z,44.8
2019-04-05T07:34:53.258Z,45.2
2019-04-05T07:44:56.766Z,45.8
2019-04-05T07:55:00.271Z,47.5
2019-04-05T08:05:06.581Z,48.2
2019-04-05T08:15:10.134Z,48.3
2019-04-05T08:25:13.686Z,48.5
2019-04-05T08:35:17.219Z,48.8
2019-04-05T08:45:20.712Z,49.2
2019-04-05T08:55:24.221Z,49.2
2019-04-05T09:05:27.689Z,49
2019-04-05T09:15:34.693Z,49.4
2019-04-05T09:25:38.215Z,49.2
2019-04-05T09:35:41.722Z,48.3
2019-04-05T09:45:45.245Z,47.6
2019-04-05T09:55:48.736Z,46.8
2019-04-05T10:05:52.256Z,46
2019-04-05T10:15:55.729Z,46.9
2019-04-05T10:25:59.223Z,46.5
2019-04-05T10:36:02.735Z,46.6
2019-04-05T10:46:06.236Z,47.4
2019-04-05T10:56:09.732Z,47.7
2019-04-05T11:06:13.248Z,47.9
2019-04-05T11:16:16.720Z,47.9
2019-04-05T11:26:20.200Z,48
2019-04-05T11:36:23.702Z,48.1
2019-04-05T11:46:27.247Z,48.1
2019-04-05T11:56:30.761Z,48.2
2019-04-05T12:06:35.460Z,48.1
2019-04-05T12:16:38.967Z,48.1
2019-04-05T12:26:42.957Z,46.5
2019-04-05T12:36:46.495Z,46
2019-04-05T12:46:50.052Z,45.4
2019-04-05T12:56:57.739Z,45.2
2019-04-05T13:07:02.049Z,45
2019-04-05T13:17:05.572Z,45.1
2019-04-05T13:27:12.432Z,45.5
2019-04-05T13:37:20.850Z,43.9
2019-04-05T13:47:24.355Z,44.5
2019-04-05T13:57:28.805Z,44.4
2019-04-05T14:07:34.504Z,42
2019-04-05T14:17:38.056Z,41.8
2019-04-05T14:27:41.520Z,42.5
2019-04-05T14:37:45.036Z,43.1
2019-04-05T14:47:48.546Z,44.3
2019-04-05T14:57:52.057Z,44.7
2019-04-05T15:07:55.554Z,45.5
2019-04-05T15:17:59.058Z,45.6
2019-04-05T15:28:02.543Z,46.3
2019-04-05T15:38:06.062Z,46.3
2019-04-05T15:48:09.576Z,46.7
2019-04-05T15:58:13.113Z,46.3
2019-04-05T16:08:16.635Z,46
2019-04-05T16:18:20.153Z,46.3
2019-04-05T16:28:23.650Z,45.9
2019-04-05T16:38:27.172Z,45.7
2019-04-05T16:48:30.676Z,46.1
2019-04-05T16:58:34.191Z,46.4
2019-04-05T17:08:37.703Z,46.7
2019-04-05T17:18:41.205Z,46.7
2019-04-05T17:28:44.684Z,47.3
2019-04-05T17:38:48.211Z,47.1
2019-04-05T17:48:52.166Z,47.8
2019-04-05T17:58:55.677Z,48.6
2019-04-05T18:08:59.193Z,50.4
2019-04-05T18:19:02.720Z,49.8
2019-04-05T18:29:06.212Z,50
2019-04-05T18:39:09.732Z,51.2
2019-04-05T18:49:13.248Z,48.8
2019-04-05T18:59:16.778Z,45.2
2019-04-05T19:09:20.309Z,44
2019-04-05T19:19:23.834Z,43.7
2019-04-05T19:29:27.344Z,43.6
2019-04-05T19:51:34.373Z,43.8
2019-04-05T20:01:37.866Z,43.8
2019-04-05T20:11:41.386Z,43.9
2019-04-05T20:21:44.863Z,43.9
2019-04-05T20:31:48.374Z,43.9
2019-04-05T20:41:51.860Z,44
2019-04-05T20:51:55.402Z,44
2019-04-05T21:01:58.928Z,44.1
2019-04-05T21:12:02.455Z,44.2
2019-04-05T21:22:05.903Z,44.3
2019-04-05T21:32:09.233Z,44.3
2019-04-05T21:42:12.571Z,44.3
2019-04-05T21:52:15.920Z,44.3
2019-04-05T22:02:19.247Z,44.3
2019-04-05T22:12:22.581Z,44.4
2019-04-05T22:22:27.530Z,44.4
2019-04-05T22:32:30.874Z,44.3
2019-04-05T22:42:34.211Z,44.3
2019-04-05T22:52:37.543Z,44.3
2019-04-05T23:02:41.884Z,44.3
2019-04-05T23:12:45.247Z,44.3
2019-04-05T23:22:48.596Z,44.4
2019-04-05T23:32:51.955Z,44.3
2019-04-05T23:42:55.303Z,44.3
2019-04-05T23:52:58.643Z,44.3
